sensor_id;sensor_type;location;lat;lon;timestamp;P1;durP1;ratioP1;P2;durP2;ratioP2
37131;SDS011;23035;50.032;21.978;2023-07-31T00:03:22;6.13;;;3.40;;
37131;SDS011;23035;50.032;21.978;2023-07-31T00:08:26;4.20;;;3.60;;
37131;SDS011;23035;50.032;21.978;2023-07-31T00:13:30;4.22;;;3.67;;
37131;SDS011;23035;50.032;21.978;2023-07-31T00:18:35;5.10;;;3.83;;
37131;SDS011;23035;50.032;21.978;2023-07-31T00:28:43;5.65;;;3.78;;
37131;SDS011;23035;50.032;21.978;2023-07-31T00:33:50;4.22;;;3.47;;
37131;SDS011;23035;50.032;21.978;2023-07-31T00:43:58;7.70;;;3.72;;
37131;SDS011;23035;50.032;21.978;2023-07-31T00:49:04;5.03;;;3.83;;
37131;SDS011;23035;50.032;21.978;2023-07-31T00:54:09;10.02;;;3.58;;
37131;SDS011;23035;50.032;21.978;2023-07-31T00:59:13;7.97;;;3.67;;
37131;SDS011;23035;50.032;21.978;2023-07-31T01:04:20;5.78;;;4.10;;
37131;SDS011;23035;50.032;21.978;2023-07-31T01:09:27;9.60;;;3.72;;
37131;SDS011;23035;50.032;21.978;2023-07-31T01:14:37;7.13;;;3.58;;
37131;SDS011;23035;50.032;21.978;2023-07-31T01:19:43;5.65;;;3.90;;
37131;SDS011;23035;50.032;21.978;2023-07-31T01:24:54;8.23;;;3.97;;
37131;SDS011;23035;50.032;21.978;2023-07-31T01:30:05;7.63;;;4.20;;
37131;SDS011;23035;50.032;21.978;2023-07-31T01:35:13;7.25;;;4.38;;
37131;SDS011;23035;50.032;21.978;2023-07-31T01:40:18;6.22;;;4.25;;
37131;SDS011;23035;50.032;21.978;2023-07-31T01:45:23;8.38;;;4.13;;
37131;SDS011;23035;50.032;21.978;2023-07-31T01:50:27;6.82;;;3.88;;
37131;SDS011;23035;50.032;21.978;2023-07-31T01:55:32;4.93;;;3.40;;
37131;SDS011;23035;50.032;21.978;2023-07-31T02:00:37;4.88;;;3.70;;
37131;SDS011;23035;50.032;21.978;2023-07-31T02:05:43;7.78;;;3.53;;
37131;SDS011;23035;50.032;21.978;2023-07-31T02:10:48;7.85;;;3.80;;
37131;SDS011;23035;50.032;21.978;2023-07-31T02:15:53;5.70;;;3.53;;
37131;SDS011;23035;50.032;21.978;2023-07-31T02:20:58;9.48;;;4.55;;
37131;SDS011;23035;50.032;21.978;2023-07-31T02:26:02;11.07;;;4.32;;
37131;SDS011;23035;50.032;21.978;2023-07-31T02:31:07;5.95;;;3.88;;
37131;SDS011;23035;50.032;21.978;2023-07-31T02:41:16;5.53;;;3.75;;
37131;SDS011;23035;50.032;21.978;2023-07-31T02:46:22;7.47;;;3.53;;
37131;SDS011;23035;50.032;21.978;2023-07-31T02:51:27;7.78;;;4.10;;
37131;SDS011;23035;50.032;21.978;2023-07-31T02:56:31;6.90;;;4.70;;
37131;SDS011;23035;50.032;21.978;2023-07-31T03:01:36;12.35;;;5.18;;
37131;SDS011;23035;50.032;21.978;2023-07-31T03:11:47;8.32;;;4.70;;
37131;SDS011;23035;50.032;21.978;2023-07-31T03:16:56;6.88;;;4.75;;
37131;SDS011;23035;50.032;21.978;2023-07-31T03:22:03;6.88;;;4.78;;
37131;SDS011;23035;50.032;21.978;2023-07-31T03:27:07;8.17;;;4.50;;
37131;SDS011;23035;50.032;21.978;2023-07-31T03:32:13;9.38;;;6.00;;
37131;SDS011;23035;50.032;21.978;2023-07-31T03:37:17;9.25;;;4.57;;
37131;SDS011;23035;50.032;21.978;2023-07-31T03:42:21;8.43;;;3.95;;
37131;SDS011;23035;50.032;21.978;2023-07-31T03:47:27;7.95;;;4.40;;
37131;SDS011;23035;50.032;21.978;2023-07-31T03:52:31;6.70;;;4.60;;
37131;SDS011;23035;50.032;21.978;2023-07-31T03:57:35;6.50;;;4.90;;
37131;SDS011;23035;50.032;21.978;2023-07-31T04:02:40;7.20;;;5.00;;
37131;SDS011;23035;50.032;21.978;2023-07-31T04:07:45;7.82;;;5.20;;
37131;SDS011;23035;50.032;21.978;2023-07-31T04:12:49;8.07;;;5.35;;
37131;SDS011;23035;50.032;21.978;2023-07-31T04:17:54;11.13;;;4.38;;
37131;SDS011;23035;50.032;21.978;2023-07-31T04:22:59;7.05;;;4.88;;
37131;SDS011;23035;50.032;21.978;2023-07-31T04:28:03;9.18;;;4.85;;
37131;SDS011;23035;50.032;21.978;2023-07-31T04:33:09;11.48;;;5.30;;
37131;SDS011;23035;50.032;21.978;2023-07-31T04:38:13;12.25;;;5.22;;
37131;SDS011;23035;50.032;21.978;2023-07-31T04:43:17;8.90;;;4.63;;
37131;SDS011;23035;50.032;21.978;2023-07-31T04:48:22;7.80;;;4.03;;
37131;SDS011;23035;50.032;21.978;2023-07-31T04:53:26;8.10;;;3.75;;
37131;SDS011;23035;50.032;21.978;2023-07-31T04:58:31;6.13;;;3.70;;
37131;SDS011;23035;50.032;21.978;2023-07-31T05:03:36;6.85;;;3.63;;
37131;SDS011;23035;50.032;21.978;2023-07-31T05:08:41;7.05;;;3.60;;
37131;SDS011;23035;50.032;21.978;2023-07-31T05:13:45;6.82;;;3.63;;
37131;SDS011;23035;50.032;21.978;2023-07-31T05:18:50;5.40;;;3.40;;
37131;SDS011;23035;50.032;21.978;2023-07-31T05:28:58;8.40;;;3.63;;
37131;SDS011;23035;50.032;21.978;2023-07-31T05:34:03;8.32;;;3.67;;
37131;SDS011;23035;50.032;21.978;2023-07-31T05:39:07;7.70;;;4.22;;
37131;SDS011;23035;50.032;21.978;2023-07-31T05:44:12;7.97;;;4.43;;
37131;SDS011;23035;50.032;21.978;2023-07-31T05:49:17;7.32;;;4.57;;
37131;SDS011;23035;50.032;21.978;2023-07-31T05:54:21;7.35;;;4.30;;
37131;SDS011;23035;50.032;21.978;2023-07-31T05:59:25;5.32;;;3.92;;
37131;SDS011;23035;50.032;21.978;2023-07-31T06:04:31;6.53;;;4.50;;
37131;SDS011;23035;50.032;21.978;2023-07-31T06:14:39;6.80;;;3.95;;
37131;SDS011;23035;50.032;21.978;2023-07-31T06:19:45;8.07;;;4.18;;
37131;SDS011;23035;50.032;21.978;2023-07-31T06:24:49;6.32;;;3.95;;
37131;SDS011;23035;50.032;21.978;2023-07-31T06:29:56;7.22;;;3.40;;
37131;SDS011;23035;50.032;21.978;2023-07-31T06:35:02;8.03;;;3.93;;
37131;SDS011;23035;50.032;21.978;2023-07-31T06:40:07;7.95;;;3.92;;
37131;SDS011;23035;50.032;21.978;2023-07-31T06:45:12;8.68;;;3.60;;
37131;SDS011;23035;50.032;21.978;2023-07-31T06:50:18;10.13;;;4.10;;
37131;SDS011;23035;50.032;21.978;2023-07-31T06:55:22;6.38;;;4.13;;
37131;SDS011;23035;50.032;21.978;2023-07-31T07:00:27;8.63;;;5.30;;
37131;SDS011;23035;50.032;21.978;2023-07-31T07:05:33;7.73;;;4.47;;
37131;SDS011;23035;50.032;21.978;2023-07-31T07:10:37;5.38;;;3.88;;
37131;SDS011;23035;50.032;21.978;2023-07-31T07:15:41;6.75;;;4.20;;
37131;SDS011;23035;50.032;21.978;2023-07-31T07:20:49;10.82;;;4.57;;
37131;SDS011;23035;50.032;21.978;2023-07-31T07:25:55;8.00;;;4.43;;
37131;SDS011;23035;50.032;21.978;2023-07-31T07:30:59;7.72;;;4.00;;
37131;SDS011;23035;50.032;21.978;2023-07-31T07:36:05;5.53;;;3.67;;
37131;SDS011;23035;50.032;21.978;2023-07-31T07:41:12;7.03;;;4.82;;
37131;SDS011;23035;50.032;21.978;2023-07-31T07:46:16;6.25;;;4.13;;
37131;SDS011;23035;50.032;21.978;2023-07-31T07:51:21;9.10;;;4.35;;
37131;SDS011;23035;50.032;21.978;2023-07-31T07:56:26;6.88;;;3.60;;
37131;SDS011;23035;50.032;21.978;2023-07-31T08:01:30;7.88;;;3.67;;
37131;SDS011;23035;50.032;21.978;2023-07-31T08:06:36;9.07;;;3.92;;
37131;SDS011;23035;50.032;21.978;2023-07-31T08:11:40;8.25;;;4.18;;
37131;SDS011;23035;50.032;21.978;2023-07-31T08:16:44;6.93;;;3.60;;
37131;SDS011;23035;50.032;21.978;2023-07-31T08:21:50;6.95;;;4.10;;
37131;SDS011;23035;50.032;21.978;2023-07-31T08:26:57;11.27;;;4.00;;
37131;SDS011;23035;50.032;21.978;2023-07-31T08:32:01;8.27;;;4.20;;
37131;SDS011;23035;50.032;21.978;2023-07-31T08:37:06;5.60;;;3.90;;
37131;SDS011;23035;50.032;21.978;2023-07-31T08:47:15;5.72;;;3.17;;
37131;SDS011;23035;50.032;21.978;2023-07-31T08:52:21;5.53;;;3.00;;
37131;SDS011;23035;50.032;21.978;2023-07-31T08:57:26;6.38;;;3.20;;
37131;SDS011;23035;50.032;21.978;2023-07-31T09:02:34;4.20;;;3.53;;
37131;SDS011;23035;50.032;21.978;2023-07-31T09:07:43;4.35;;;3.08;;
37131;SDS011;23035;50.032;21.978;2023-07-31T09:12:51;5.90;;;3.63;;
37131;SDS011;23035;50.032;21.978;2023-07-31T09:17:58;4.25;;;3.63;;
37131;SDS011;23035;50.032;21.978;2023-07-31T09:23:08;6.85;;;3.45;;
37131;SDS011;23035;50.032;21.978;2023-07-31T09:28:14;6.18;;;3.40;;
37131;SDS011;23035;50.032;21.978;2023-07-31T09:33:18;6.20;;;3.53;;
37131;SDS011;23035;50.032;21.978;2023-07-31T09:38:24;6.00;;;3.88;;
37131;SDS011;23035;50.032;21.978;2023-07-31T09:43:29;4.90;;;3.85;;
37131;SDS011;23035;50.032;21.978;2023-07-31T09:48:32;9.77;;;4.20;;
37131;SDS011;23035;50.032;21.978;2023-07-31T09:53:45;5.95;;;3.83;;
37131;SDS011;23035;50.032;21.978;2023-07-31T09:58:53;8.30;;;3.75;;
37131;SDS011;23035;50.032;21.978;2023-07-31T10:03:59;5.30;;;3.92;;
37131;SDS011;23035;50.032;21.978;2023-07-31T10:09:08;12.77;;;5.32;;
37131;SDS011;23035;50.032;21.978;2023-07-31T10:14:14;6.03;;;4.38;;
37131;SDS011;23035;50.032;21.978;2023-07-31T10:19:18;7.13;;;4.90;;
37131;SDS011;23035;50.032;21.978;2023-07-31T10:24:26;6.10;;;4.30;;
37131;SDS011;23035;50.032;21.978;2023-07-31T10:29:40;5.78;;;4.00;;
37131;SDS011;23035;50.032;21.978;2023-07-31T10:34:46;6.78;;;4.10;;
37131;SDS011;23035;50.032;21.978;2023-07-31T10:40:02;4.97;;;3.72;;
37131;SDS011;23035;50.032;21.978;2023-07-31T10:50:17;4.68;;;3.58;;
37131;SDS011;23035;50.032;21.978;2023-07-31T10:55:35;7.35;;;3.35;;
37131;SDS011;23035;50.032;21.978;2023-07-31T11:00:44;3.83;;;3.42;;
37131;SDS011;23035;50.032;21.978;2023-07-31T11:05:59;4.90;;;3.80;;
37131;SDS011;23035;50.032;21.978;2023-07-31T11:11:08;6.60;;;3.17;;
37131;SDS011;23035;50.032;21.978;2023-07-31T11:16:13;3.67;;;3.10;;
37131;SDS011;23035;50.032;21.978;2023-07-31T11:21:18;4.13;;;3.28;;
37131;SDS011;23035;50.032;21.978;2023-07-31T11:26:25;4.60;;;3.00;;
37131;SDS011;23035;50.032;21.978;2023-07-31T11:31:30;6.75;;;3.00;;
37131;SDS011;23035;50.032;21.978;2023-07-31T11:36:34;6.50;;;2.90;;
37131;SDS011;23035;50.032;21.978;2023-07-31T11:41:41;3.20;;;2.67;;
37131;SDS011;23035;50.032;21.978;2023-07-31T11:46:45;4.32;;;3.20;;
37131;SDS011;23035;50.032;21.978;2023-07-31T11:51:49;4.20;;;3.10;;
37131;SDS011;23035;50.032;21.978;2023-07-31T11:56:55;4.00;;;2.70;;
37131;SDS011;23035;50.032;21.978;2023-07-31T12:02:00;4.40;;;3.10;;
37131;SDS011;23035;50.032;21.978;2023-07-31T12:07:05;6.20;;;3.20;;
37131;SDS011;23035;50.032;21.978;2023-07-31T12:12:11;4.37;;;3.70;;
37131;SDS011;23035;50.032;21.978;2023-07-31T12:17:24;6.10;;;3.47;;
37131;SDS011;23035;50.032;21.978;2023-07-31T12:22:28;5.65;;;3.20;;
37131;SDS011;23035;50.032;21.978;2023-07-31T12:27:35;4.97;;;2.88;;
37131;SDS011;23035;50.032;21.978;2023-07-31T12:32:39;5.07;;;3.13;;
37131;SDS011;23035;50.032;21.978;2023-07-31T12:37:46;5.18;;;3.33;;
37131;SDS011;23035;50.032;21.978;2023-07-31T12:42:51;6.40;;;2.97;;
37131;SDS011;23035;50.032;21.978;2023-07-31T12:47:56;5.05;;;2.63;;
37131;SDS011;23035;50.032;21.978;2023-07-31T12:53:02;4.35;;;2.72;;
37131;SDS011;23035;50.032;21.978;2023-07-31T12:58:08;3.63;;;3.17;;
37131;SDS011;23035;50.032;21.978;2023-07-31T13:03:12;6.47;;;3.40;;
37131;SDS011;23035;50.032;21.978;2023-07-31T13:08:16;6.80;;;3.27;;
37131;SDS011;23035;50.032;21.978;2023-07-31T13:13:22;5.95;;;3.10;;
37131;SDS011;23035;50.032;21.978;2023-07-31T13:18:26;5.47;;;3.00;;
37131;SDS011;23035;50.032;21.978;2023-07-31T13:23:30;5.53;;;2.72;;
37131;SDS011;23035;50.032;21.978;2023-07-31T13:28:36;6.53;;;3.03;;
37131;SDS011;23035;50.032;21.978;2023-07-31T13:33:40;4.82;;;3.10;;
37131;SDS011;23035;50.032;21.978;2023-07-31T13:38:45;7.75;;;3.03;;
37131;SDS011;23035;50.032;21.978;2023-07-31T13:43:51;4.32;;;2.97;;
37131;SDS011;23035;50.032;21.978;2023-07-31T13:48:55;3.67;;;3.00;;
37131;SDS011;23035;50.032;21.978;2023-07-31T13:53:59;6.17;;;2.87;;
37131;SDS011;23035;50.032;21.978;2023-07-31T13:59:05;5.10;;;2.97;;
37131;SDS011;23035;50.032;21.978;2023-07-31T14:04:09;4.03;;;2.63;;
37131;SDS011;23035;50.032;21.978;2023-07-31T14:09:13;7.32;;;2.95;;
37131;SDS011;23035;50.032;21.978;2023-07-31T14:14:19;6.82;;;2.78;;
37131;SDS011;23035;50.032;21.978;2023-07-31T14:19:23;6.18;;;2.75;;
37131;SDS011;23035;50.032;21.978;2023-07-31T14:24:28;5.75;;;2.78;;
37131;SDS011;23035;50.032;21.978;2023-07-31T14:29:34;5.28;;;2.55;;
37131;SDS011;23035;50.032;21.978;2023-07-31T14:34:38;8.10;;;3.00;;
37131;SDS011;23035;50.032;21.978;2023-07-31T14:39:42;5.47;;;2.80;;
37131;SDS011;23035;50.032;21.978;2023-07-31T14:44:47;7.55;;;2.85;;
37131;SDS011;23035;50.032;21.978;2023-07-31T14:49:51;7.32;;;3.17;;
37131;SDS011;23035;50.032;21.978;2023-07-31T14:54:55;2.53;;;2.22;;
37131;SDS011;23035;50.032;21.978;2023-07-31T15:00:01;5.53;;;2.63;;
37131;SDS011;23035;50.032;21.978;2023-07-31T15:05:09;6.00;;;2.88;;
37131;SDS011;23035;50.032;21.978;2023-07-31T15:10:13;5.38;;;3.55;;
37131;SDS011;23035;50.032;21.978;2023-07-31T15:15:19;3.35;;;2.42;;
37131;SDS011;23035;50.032;21.978;2023-07-31T15:20:23;7.63;;;2.92;;
37131;SDS011;23035;50.032;21.978;2023-07-31T15:25:27;5.00;;;2.60;;
37131;SDS011;23035;50.032;21.978;2023-07-31T15:30:33;4.00;;;2.60;;
37131;SDS011;23035;50.032;21.978;2023-07-31T15:35:37;4.32;;;3.00;;
37131;SDS011;23035;50.032;21.978;2023-07-31T15:40:41;8.25;;;3.00;;
37131;SDS011;23035;50.032;21.978;2023-07-31T15:45:47;4.32;;;2.80;;
37131;SDS011;23035;50.032;21.978;2023-07-31T15:50:51;6.22;;;2.88;;
37131;SDS011;23035;50.032;21.978;2023-07-31T15:55:57;6.82;;;2.60;;
37131;SDS011;23035;50.032;21.978;2023-07-31T16:01:04;5.55;;;3.28;;
37131;SDS011;23035;50.032;21.978;2023-07-31T16:06:10;5.85;;;2.88;;
37131;SDS011;23035;50.032;21.978;2023-07-31T16:11:14;4.65;;;2.90;;
37131;SDS011;23035;50.032;21.978;2023-07-31T16:16:20;5.93;;;3.30;;
37131;SDS011;23035;50.032;21.978;2023-07-31T16:21:25;5.35;;;3.28;;
37131;SDS011;23035;50.032;21.978;2023-07-31T16:26:30;6.13;;;2.90;;
37131;SDS011;23035;50.032;21.978;2023-07-31T16:31:36;5.10;;;3.35;;
37131;SDS011;23035;50.032;21.978;2023-07-31T16:36:58;5.53;;;3.42;;
37131;SDS011;23035;50.032;21.978;2023-07-31T16:42:02;9.88;;;3.58;;
37131;SDS011;23035;50.032;21.978;2023-07-31T16:47:09;5.38;;;3.15;;
37131;SDS011;23035;50.032;21.978;2023-07-31T16:52:13;6.72;;;3.85;;
37131;SDS011;23035;50.032;21.978;2023-07-31T16:57:17;6.47;;;4.27;;
37131;SDS011;23035;50.032;21.978;2023-07-31T17:02:23;6.13;;;3.67;;
37131;SDS011;23035;50.032;21.978;2023-07-31T17:07:28;8.90;;;5.18;;
37131;SDS011;23035;50.032;21.978;2023-07-31T17:12:32;5.73;;;4.37;;
37131;SDS011;23035;50.032;21.978;2023-07-31T17:17:38;10.07;;;4.60;;
37131;SDS011;23035;50.032;21.978;2023-07-31T17:22:42;10.38;;;6.35;;
37131;SDS011;23035;50.032;21.978;2023-07-31T17:27:50;11.30;;;7.10;;
37131;SDS011;23035;50.032;21.978;2023-07-31T17:32:57;7.60;;;4.60;;
37131;SDS011;23035;50.032;21.978;2023-07-31T17:38:02;8.82;;;4.72;;
37131;SDS011;23035;50.032;21.978;2023-07-31T17:43:06;12.18;;;5.90;;
37131;SDS011;23035;50.032;21.978;2023-07-31T17:48:11;11.32;;;5.72;;
37131;SDS011;23035;50.032;21.978;2023-07-31T17:53:15;12.93;;;5.90;;
37131;SDS011;23035;50.032;21.978;2023-07-31T17:58:20;14.17;;;6.40;;
37131;SDS011;23035;50.032;21.978;2023-07-31T18:03:26;15.82;;;5.30;;
37131;SDS011;23035;50.032;21.978;2023-07-31T18:08:30;11.27;;;6.18;;
37131;SDS011;23035;50.032;21.978;2023-07-31T18:13:34;15.83;;;6.57;;
37131;SDS011;23035;50.032;21.978;2023-07-31T18:18:40;12.80;;;6.10;;
37131;SDS011;23035;50.032;21.978;2023-07-31T18:23:44;17.23;;;8.80;;
37131;SDS011;23035;50.032;21.978;2023-07-31T18:28:48;11.18;;;7.25;;
37131;SDS011;23035;50.032;21.978;2023-07-31T18:33:53;23.45;;;7.30;;
37131;SDS011;23035;50.032;21.978;2023-07-31T18:38:57;12.82;;;6.53;;
37131;SDS011;23035;50.032;21.978;2023-07-31T18:44:02;18.45;;;8.57;;
37131;SDS011;23035;50.032;21.978;2023-07-31T18:49:07;16.40;;;10.85;;
37131;SDS011;23035;50.032;21.978;2023-07-31T18:59:15;21.40;;;7.45;;
37131;SDS011;23035;50.032;21.978;2023-07-31T19:04:23;15.10;;;7.97;;
37131;SDS011;23035;50.032;21.978;2023-07-31T19:09:27;17.17;;;7.78;;
37131;SDS011;23035;50.032;21.978;2023-07-31T19:14:33;11.43;;;7.43;;
37131;SDS011;23035;50.032;21.978;2023-07-31T19:19:38;16.40;;;7.53;;
37131;SDS011;23035;50.032;21.978;2023-07-31T19:29:47;15.57;;;6.20;;
37131;SDS011;23035;50.032;21.978;2023-07-31T19:34:53;12.98;;;6.68;;
37131;SDS011;23035;50.032;21.978;2023-07-31T19:39:57;15.20;;;5.90;;
37131;SDS011;23035;50.032;21.978;2023-07-31T19:45:02;18.07;;;6.90;;
37131;SDS011;23035;50.032;21.978;2023-07-31T19:50:08;16.92;;;6.35;;
37131;SDS011;23035;50.032;21.978;2023-07-31T19:55:12;15.23;;;6.43;;
37131;SDS011;23035;50.032;21.978;2023-07-31T20:00:16;12.27;;;6.57;;
37131;SDS011;23035;50.032;21.978;2023-07-31T20:05:22;24.07;;;8.00;;
37131;SDS011;23035;50.032;21.978;2023-07-31T20:10:28;19.83;;;9.27;;
37131;SDS011;23035;50.032;21.978;2023-07-31T20:15:32;24.33;;;9.13;;
37131;SDS011;23035;50.032;21.978;2023-07-31T20:20:39;17.15;;;9.93;;
37131;SDS011;23035;50.032;21.978;2023-07-31T20:25:43;16.27;;;8.38;;
37131;SDS011;23035;50.032;21.978;2023-07-31T20:30:47;22.02;;;8.88;;
37131;SDS011;23035;50.032;21.978;2023-07-31T20:35:52;15.60;;;8.48;;
37131;SDS011;23035;50.032;21.978;2023-07-31T20:40:56;14.55;;;9.23;;
37131;SDS011;23035;50.032;21.978;2023-07-31T20:46:01;16.85;;;9.20;;
37131;SDS011;23035;50.032;21.978;2023-07-31T20:51:06;20.17;;;8.52;;
37131;SDS011;23035;50.032;21.978;2023-07-31T20:56:10;18.10;;;8.90;;
37131;SDS011;23035;50.032;21.978;2023-07-31T21:01:14;18.15;;;8.38;;
37131;SDS011;23035;50.032;21.978;2023-07-31T21:06:19;17.05;;;7.80;;
37131;SDS011;23035;50.032;21.978;2023-07-31T21:11:24;17.10;;;8.75;;
37131;SDS011;23035;50.032;21.978;2023-07-31T21:16:28;16.77;;;8.40;;
37131;SDS011;23035;50.032;21.978;2023-07-31T21:21:33;15.88;;;7.28;;
37131;SDS011;23035;50.032;21.978;2023-07-31T21:26:37;12.25;;;7.10;;
37131;SDS011;23035;50.032;21.978;2023-07-31T21:31:42;12.85;;;7.32;;
37131;SDS011;23035;50.032;21.978;2023-07-31T21:36:47;14.77;;;9.38;;
37131;SDS011;23035;50.032;21.978;2023-07-31T21:46:55;17.67;;;8.38;;
37131;SDS011;23035;50.032;21.978;2023-07-31T21:52:00;17.45;;;8.00;;
37131;SDS011;23035;50.032;21.978;2023-07-31T21:57:04;21.05;;;8.88;;
37131;SDS011;23035;50.032;21.978;2023-07-31T22:02:08;10.30;;;6.80;;
37131;SDS011;23035;50.032;21.978;2023-07-31T22:07:14;14.23;;;7.32;;
37131;SDS011;23035;50.032;21.978;2023-07-31T22:12:18;14.18;;;7.85;;
37131;SDS011;23035;50.032;21.978;2023-07-31T22:17:22;16.88;;;8.02;;
37131;SDS011;23035;50.032;21.978;2023-07-31T22:22:27;14.48;;;7.53;;
37131;SDS011;23035;50.032;21.978;2023-07-31T22:27:32;16.77;;;8.02;;
37131;SDS011;23035;50.032;21.978;2023-07-31T22:32:36;17.30;;;7.53;;
37131;SDS011;23035;50.032;21.978;2023-07-31T22:37:42;16.17;;;7.63;;
37131;SDS011;23035;50.032;21.978;2023-07-31T22:47:49;14.50;;;7.45;;
37131;SDS011;23035;50.032;21.978;2023-07-31T22:52:55;15.32;;;6.95;;
37131;SDS011;23035;50.032;21.978;2023-07-31T22:57:59;10.18;;;6.65;;
37131;SDS011;23035;50.032;21.978;2023-07-31T23:03:03;13.55;;;7.30;;
37131;SDS011;23035;50.032;21.978;2023-07-31T23:08:09;13.00;;;6.35;;
37131;SDS011;23035;50.032;21.978;2023-07-31T23:13:13;13.02;;;6.80;;
37131;SDS011;23035;50.032;21.978;2023-07-31T23:18:17;12.98;;;7.07;;
37131;SDS011;23035;50.032;21.978;2023-07-31T23:23:23;13.77;;;7.63;;
37131;SDS011;23035;50.032;21.978;2023-07-31T23:28:28;11.50;;;7.07;;
37131;SDS011;23035;50.032;21.978;2023-07-31T23:33:32;16.48;;;8.00;;
37131;SDS011;23035;50.032;21.978;2023-07-31T23:38:37;15.10;;;7.60;;
37131;SDS011;23035;50.032;21.978;2023-07-31T23:43:41;12.02;;;7.32;;
37131;SDS011;23035;50.032;21.978;2023-07-31T23:53:52;14.82;;;7.20;;
37131;SDS011;23035;50.032;21.978;2023-07-31T23:58:56;13.80;;;6.82;;
